Time;durP1;ratioP1;P1;durP2;ratioP2;P2;SDS_P1;SDS_P2;PMS_P1;PMS_P2;Temp;Humidity;BMP_temperature;BMP_pressure;BME280_temperature;BME280_humidity;BME280_pressure;Samples;Min_cycle;Max_cycle;Signal;HPM_P1;HPM_P2
2023/11/07 00:01:27;;;;;;;;;3.00;2.67;;;;;;;;5049744;28;9308;-81
2023/11/07 00:03:54;;;;;;;;;2.00;2.00;;;;;;;;5048987;28;9288;-81
2023/11/07 00:06:23;;;;;;;;;3.00;3.00;;;;;;;;5050283;28;9426;-81
2023/11/07 00:08:53;;;;;;;;;3.00;3.00;;;;;;;;5048349;28;9351;-81
2023/11/07 00:11:20;;;;;;;;;3.00;3.00;;;;;;;;5050069;28;9238;-81
2023/11/07 00:13:47;;;;;;;;;2.67;2.67;;;;;;;;5053671;28;9300;-79
2023/11/07 00:16:17;;;;;;;;;3.67;3.67;;;;;;;;5074863;28;9329;-81
2023/11/07 00:18:44;;;;;;;;;2.67;2.67;;;;;;;;5056954;28;9417;-81
2023/11/07 00:21:12;;;;;;;;;3.00;3.00;;;;;;;;5051269;28;9261;-81
2023/11/07 00:23:40;;;;;;;;;3.00;3.00;;;;;;;;5047329;28;9459;-81
2023/11/07 00:26:10;;;;;;;;;3.33;3.33;;;;;;;;5040946;28;9501;-81
2023/11/07 00:28:40;;;;;;;;;2.00;2.00;;;;;;;;5048940;28;9303;-81
2023/11/07 00:31:08;;;;;;;;;2.67;2.67;;;;;;;;5050099;28;9915;-81
2023/11/07 00:33:35;;;;;;;;;6.33;3.00;;;;;;;;5054113;28;9396;-81
2023/11/07 00:36:02;;;;;;;;;4.00;2.67;;;;;;;;5058106;28;9239;-81
2023/11/07 00:38:30;;;;;;;;;3.00;3.00;;;;;;;;5049522;28;9258;-80
2023/11/07 00:40:59;;;;;;;;;2.67;2.00;;;;;;;;5038518;28;9172;-81
2023/11/07 00:43:26;;;;;;;;;3.00;3.00;;;;;;;;5050525;28;9246;-80
2023/11/07 00:45:53;;;;;;;;;2.33;2.00;;;;;;;;5054223;28;9327;-80
2023/11/07 00:48:21;;;;;;;;;3.00;1.00;;;;;;;;5036494;28;9191;-79
2023/11/07 00:50:49;;;;;;;;;2.67;1.67;;;;;;;;5053710;28;9335;-79
2023/11/07 00:53:16;;;;;;;;;2.00;2.00;;;;;;;;5054509;28;9320;-82
2023/11/07 00:55:44;;;;;;;;;3.00;3.00;;;;;;;;5055141;28;9175;-80
2023/11/07 00:58:12;;;;;;;;;2.67;2.67;;;;;;;;5053808;28;9248;-82
2023/11/07 01:00:41;;;;;;;;;3.33;2.00;;;;;;;;5043129;28;9291;-82
2023/11/07 01:03:08;;;;;;;;;2.00;2.00;;;;;;;;5047474;28;9388;-81
2023/11/07 01:05:38;;;;;;;;;1.67;1.33;;;;;;;;5046396;28;9242;-81
2023/11/07 01:08:05;;;;;;;;;2.00;2.00;;;;;;;;5051329;28;9273;-81
2023/11/07 01:10:33;;;;;;;;;2.67;2.67;;;;;;;;5052166;28;9385;-81
2023/11/07 01:13:00;;;;;;;;;4.00;2.67;;;;;;;;5044520;28;9369;-81
2023/11/07 01:15:29;;;;;;;;;5.00;2.00;;;;;;;;5046713;28;9250;-81
2023/11/07 01:17:56;;;;;;;;;2.00;2.00;;;;;;;;5049411;28;10198;-81
2023/11/07 01:20:24;;;;;;;;;2.00;2.00;;;;;;;;5045472;28;9303;-82
2023/11/07 01:22:51;;;;;;;;;2.00;2.00;;;;;;;;5066492;28;9525;-80
2023/11/07 01:25:21;;;;;;;;;4.33;1.00;;;;;;;;5073180;28;9348;-80
2023/11/07 01:27:52;;;;;;;;;3.00;3.00;;;;;;;;5057764;28;9455;-81
2023/11/07 01:30:20;;;;;;;;;2.00;2.00;;;;;;;;5042989;28;9470;-81
2023/11/07 01:32:50;;;;;;;;;2.00;2.00;;;;;;;;5043480;28;9462;-79
2023/11/07 01:35:18;;;;;;;;;2.00;2.00;;;;;;;;5043915;28;9400;-81
2023/11/07 01:37:45;;;;;;;;;4.00;2.33;;;;;;;;5042926;28;9416;-81
2023/11/07 01:40:13;;;;;;;;;3.00;3.00;;;;;;;;5047998;28;10038;-79
2023/11/07 01:42:43;;;;;;;;;1.00;1.00;;;;;;;;5048661;28;9444;-80
2023/11/07 01:45:11;;;;;;;;;3.00;3.00;;;;;;;;5046468;28;9333;-81
2023/11/07 01:47:40;;;;;;;;;3.00;3.00;;;;;;;;5048001;28;9253;-80
2023/11/07 01:50:12;;;;;;;;;3.00;3.00;;;;;;;;5041891;28;9237;-80
2023/11/07 01:52:40;;;;;;;;;3.00;3.00;;;;;;;;5034348;28;9502;-80
2023/11/07 01:55:08;;;;;;;;;3.33;2.33;;;;;;;;5048455;28;9462;-80
2023/11/07 01:57:36;;;;;;;;;1.00;1.00;;;;;;;;5047371;28;9397;-81
2023/11/07 02:00:11;;;;;;;;;2.00;2.00;;;;;;;;5048457;28;9247;-81
2023/11/07 02:02:39;;;;;;;;;5.00;3.00;;;;;;;;5037011;28;9272;-80
2023/11/07 02:05:11;;;;;;;;;1.33;1.33;;;;;;;;5048071;28;9550;-81
2023/11/07 02:07:38;;;;;;;;;3.00;3.00;;;;;;;;5038241;28;9234;-79
2023/11/07 02:10:06;;;;;;;;;3.33;2.00;;;;;;;;5048138;28;9171;-81
2023/11/07 02:12:33;;;;;;;;;3.33;3.00;;;;;;;;5047397;28;9358;-79
2023/11/07 02:15:23;;;;;;;;;1.00;1.00;;;;;;;;5039920;28;9311;-80
2023/11/07 02:17:50;;;;;;;;;3.00;3.00;;;;;;;;5047580;28;10301;-79
2023/11/07 02:20:19;;;;;;;;;1.00;1.00;;;;;;;;5047680;28;9430;-80
2023/11/07 02:22:47;;;;;;;;;5.33;3.00;;;;;;;;5048074;28;9257;-80
2023/11/07 02:25:16;;;;;;;;;2.67;2.67;;;;;;;;5048465;28;9385;-81
2023/11/07 02:27:44;;;;;;;;;0.00;0.00;;;;;;;;5048736;28;9450;-81
2023/11/07 02:30:12;;;;;;;;;3.00;2.00;;;;;;;;5040497;28;9069;-80
2023/11/07 02:32:40;;;;;;;;;1.33;1.33;;;;;;;;5049741;28;9254;-81
2023/11/07 02:35:10;;;;;;;;;2.00;2.00;;;;;;;;5049338;28;9253;-81
2023/11/07 02:37:38;;;;;;;;;2.33;2.33;;;;;;;;5052357;28;9275;-81
2023/11/07 02:40:06;;;;;;;;;3.67;2.00;;;;;;;;5049214;28;9385;-81
2023/11/07 02:42:35;;;;;;;;;2.00;1.00;;;;;;;;5052989;28;9413;-81
2023/11/07 02:45:06;;;;;;;;;1.00;1.00;;;;;;;;5056527;28;9389;-80
2023/11/07 02:47:36;;;;;;;;;3.00;1.33;;;;;;;;5052362;28;9214;-81
2023/11/07 02:50:04;;;;;;;;;2.00;2.00;;;;;;;;5057474;28;9397;-81
2023/11/07 02:52:32;;;;;;;;;6.00;2.00;;;;;;;;5048540;28;9333;-81
2023/11/07 02:55:00;;;;;;;;;1.33;1.33;;;;;;;;5048212;28;9404;-80
2023/11/07 02:57:27;;;;;;;;;1.00;1.00;;;;;;;;5052340;28;9383;-80
2023/11/07 02:59:56;;;;;;;;;1.00;1.00;;;;;;;;5041975;28;9521;-80
2023/11/07 03:02:24;;;;;;;;;1.33;1.33;;;;;;;;5042858;28;9247;-80
2023/11/07 03:04:54;;;;;;;;;3.00;2.00;;;;;;;;5051374;28;9319;-81
2023/11/07 03:07:21;;;;;;;;;2.00;2.00;;;;;;;;5049735;28;9342;-80
2023/11/07 03:09:51;;;;;;;;;1.67;1.67;;;;;;;;5051102;28;9361;-81
2023/11/07 03:12:22;;;;;;;;;3.00;1.33;;;;;;;;5052029;28;9316;-82
2023/11/07 03:14:50;;;;;;;;;2.00;2.00;;;;;;;;5050856;28;9518;-81
2023/11/07 03:17:19;;;;;;;;;2.00;2.00;;;;;;;;5033912;28;9483;-81
2023/11/07 03:19:51;;;;;;;;;1.00;1.00;;;;;;;;5051392;28;9400;-80
2023/11/07 03:22:26;;;;;;;;;1.00;1.00;;;;;;;;5050849;28;9610;-80
2023/11/07 03:24:53;;;;;;;;;2.25;2.25;;;;;;;;5034037;28;9510;-80
2023/11/07 03:27:20;;;;;;;;;2.25;1.00;;;;;;;;5049068;28;10338;-81
2023/11/07 03:29:48;;;;;;;;;1.25;1.25;;;;;;;;5050429;28;9686;-80
2023/11/07 03:32:15;;;;;;;;;3.00;1.00;;;;;;;;5051717;28;10335;-81
2023/11/07 03:34:44;;;;;;;;;2.00;2.00;;;;;;;;5049540;28;9547;-80
2023/11/07 03:37:11;;;;;;;;;1.00;1.00;;;;;;;;5044231;28;10529;-81
2023/11/07 03:39:38;;;;;;;;;1.00;1.00;;;;;;;;5045476;28;9528;-81
2023/11/07 03:42:06;;;;;;;;;1.25;1.25;;;;;;;;5045550;28;9614;-81
2023/11/07 03:44:34;;;;;;;;;2.00;2.00;;;;;;;;5046007;28;10650;-79
2023/11/07 03:47:05;;;;;;;;;1.00;1.00;;;;;;;;5040726;28;9692;-81
2023/11/07 03:49:32;;;;;;;;;4.00;2.00;;;;;;;;5050180;28;9567;-80
2023/11/07 03:52:02;;;;;;;;;2.75;1.00;;;;;;;;5050139;28;9752;-81
2023/11/07 03:54:29;;;;;;;;;1.00;1.00;;;;;;;;5049922;28;9772;-80
2023/11/07 03:56:56;;;;;;;;;1.00;1.00;;;;;;;;5050866;28;9761;-81
2023/11/07 03:59:23;;;;;;;;;0.75;0.75;;;;;;;;5050040;28;9787;-81
2023/11/07 04:01:51;;;;;;;;;2.25;2.25;;;;;;;;5041903;28;9585;-80
2023/11/07 04:04:20;;;;;;;;;2.25;2.25;;;;;;;;5047150;28;9698;-81
2023/11/07 04:06:48;;;;;;;;;1.75;1.75;;;;;;;;5051843;28;9691;-80
2023/11/07 04:09:17;;;;;;;;;3.50;2.00;;;;;;;;5065176;28;9702;-81
2023/11/07 04:11:45;;;;;;;;;1.00;1.00;;;;;;;;5075637;28;9692;-80
2023/11/07 04:14:12;;;;;;;;;2.75;2.00;;;;;;;;5073828;28;9773;-81
2023/11/07 04:16:40;;;;;;;;;1.00;1.00;;;;;;;;5055171;28;9863;-81
2023/11/07 04:19:07;;;;;;;;;4.00;2.00;;;;;;;;5049881;28;9687;-80
2023/11/07 04:21:35;;;;;;;;;2.00;2.00;;;;;;;;5049919;28;9898;-81
2023/11/07 04:24:04;;;;;;;;;4.75;1.25;;;;;;;;5051745;28;9845;-81
2023/11/07 04:26:33;;;;;;;;;1.75;1.75;;;;;;;;5051858;28;9956;-81
2023/11/07 04:29:01;;;;;;;;;2.75;2.75;;;;;;;;5053466;28;9928;-81
2023/11/07 04:31:28;;;;;;;;;1.25;1.25;;;;;;;;5041612;28;10554;-79
2023/11/07 04:33:57;;;;;;;;;1.25;1.25;;;;;;;;5052812;28;9924;-81
2023/11/07 04:36:25;;;;;;;;;1.00;1.00;;;;;;;;5055095;28;9871;-79
2023/11/07 04:38:53;;;;;;;;;3.00;3.00;;;;;;;;5055289;28;9926;-80
2023/11/07 04:41:20;;;;;;;;;2.00;2.00;;;;;;;;5053267;28;10689;-81
2023/11/07 04:43:49;;;;;;;;;1.50;1.50;;;;;;;;5050187;28;9940;-80
2023/11/07 04:46:17;;;;;;;;;3.00;1.75;;;;;;;;5050869;28;9942;-80
2023/11/07 04:48:45;;;;;;;;;1.00;1.00;;;;;;;;5050408;28;10082;-81
2023/11/07 04:51:12;;;;;;;;;2.00;2.00;;;;;;;;5040581;28;9939;-80
2023/11/07 04:53:40;;;;;;;;;1.00;1.00;;;;;;;;5042288;28;10105;-81
2023/11/07 04:56:08;;;;;;;;;2.00;2.00;;;;;;;;5044209;28;9910;-80
2023/11/07 04:58:36;;;;;;;;;8.00;2.00;;;;;;;;5048550;28;10166;-81
2023/11/07 05:01:07;;;;;;;;;1.50;1.00;;;;;;;;5045793;28;9999;-80
2023/11/07 05:03:34;;;;;;;;;2.00;2.00;;;;;;;;5049217;28;9839;-82
2023/11/07 05:06:06;;;;;;;;;2.50;2.00;;;;;;;;5056592;28;10147;-82
2023/11/07 05:08:33;;;;;;;;;1.25;1.25;;;;;;;;5057753;28;10058;-83
2023/11/07 05:11:06;;;;;;;;;1.00;1.00;;;;;;;;5069656;28;10096;-82
2023/11/07 05:13:38;;;;;;;;;1.00;1.00;;;;;;;;5064056;28;10016;-81
2023/11/07 05:16:45;;;;;;;;;1.25;1.25;;;;;;;;5044600;28;10014;-81
2023/11/07 05:19:20;;;;;;;;;2.00;2.00;;;;;;;;5054301;28;10009;-83
2023/11/07 05:25:00;;;;;;;;;1.00;1.00;;;;;;;;5029135;28;10131;-81
2023/11/07 05:27:28;;;;;;;;;2.00;1.25;;;;;;;;5050334;28;10212;-81
2023/11/07 05:30:31;;;;;;;;;3.25;2.00;;;;;;;;5042686;28;10326;-80
2023/11/07 05:36:18;;;;;;;;;1.00;1.00;;;;;;;;4996886;28;10254;-82
2023/11/07 05:38:50;;;;;;;;;4.00;2.00;;;;;;;;5028512;28;10241;-81
2023/11/07 05:41:18;;;;;;;;;4.00;4.00;;;;;;;;5031524;28;10308;-80
2023/11/07 05:43:47;;;;;;;;;2.00;2.00;;;;;;;;5027964;28;10310;-81
2023/11/07 05:46:17;;;;;;;;;2.00;2.00;;;;;;;;5028555;28;10235;-81
2023/11/07 05:48:45;;;;;;;;;1.75;1.00;;;;;;;;5027848;28;10337;-80
2023/11/07 05:51:13;;;;;;;;;0.00;0.00;;;;;;;;5028152;28;10152;-81
2023/11/07 05:53:41;;;;;;;;;2.00;2.00;;;;;;;;5027282;28;10167;-79
2023/11/07 05:56:08;;;;;;;;;1.00;1.00;;;;;;;;5028323;28;10440;-81
2023/11/07 05:58:37;;;;;;;;;3.00;2.00;;;;;;;;5020459;28;11043;-81
2023/11/07 06:01:05;;;;;;;;;1.00;1.00;;;;;;;;5031952;28;10212;-79
2023/11/07 06:03:35;;;;;;;;;1.00;1.00;;;;;;;;5048161;28;10366;-77
2023/11/07 06:06:03;;;;;;;;;1.00;1.00;;;;;;;;5048187;28;10226;-76
2023/11/07 06:08:31;;;;;;;;;1.75;1.75;;;;;;;;5048425;28;10363;-80
2023/11/07 06:10:58;;;;;;;;;1.00;1.00;;;;;;;;5048124;28;10205;-75
2023/11/07 06:13:26;;;;;;;;;2.50;2.00;;;;;;;;5047534;28;10162;-76
2023/11/07 06:15:53;;;;;;;;;2.00;2.00;;;;;;;;5050185;28;10308;-82
2023/11/07 06:18:21;;;;;;;;;2.00;0.75;;;;;;;;5050787;28;10064;-76
2023/11/07 06:20:49;;;;;;;;;3.00;1.25;;;;;;;;5050238;28;10122;-78
2023/11/07 06:23:16;;;;;;;;;2.25;2.00;;;;;;;;5050675;28;10174;-79
2023/11/07 06:25:45;;;;;;;;;1.75;1.75;;;;;;;;5036457;28;10331;-76
2023/11/07 06:28:13;;;;;;;;;2.00;2.00;;;;;;;;5049736;28;10169;-75
2023/11/07 06:30:40;;;;;;;;;2.50;2.50;;;;;;;;5047374;28;10241;-75
2023/11/07 06:33:12;;;;;;;;;2.25;1.50;;;;;;;;5051706;28;10292;-78
2023/11/07 06:35:39;;;;;;;;;2.75;2.00;;;;;;;;5043821;28;11187;-77
2023/11/07 06:38:07;;;;;;;;;2.25;2.25;;;;;;;;5052759;28;11231;-75
2023/11/07 06:40:34;;;;;;;;;3.00;3.00;;;;;;;;5044096;28;10370;-77
2023/11/07 06:43:03;;;;;;;;;3.00;2.00;;;;;;;;5042235;28;10372;-76
2023/11/07 06:45:30;;;;;;;;;2.75;2.00;;;;;;;;5049802;28;10379;-77
2023/11/07 06:47:57;;;;;;;;;2.50;2.00;;;;;;;;5051570;28;10493;-79
2023/11/07 06:50:26;;;;;;;;;1.00;1.00;;;;;;;;5050977;28;10464;-77
2023/11/07 06:52:54;;;;;;;;;2.75;2.75;;;;;;;;5047793;28;10231;-75
2023/11/07 06:55:24;;;;;;;;;2.25;2.00;;;;;;;;5051346;28;10425;-77
2023/11/07 06:57:55;;;;;;;;;2.00;2.00;;;;;;;;5051249;28;10582;-80
2023/11/07 07:00:26;;;;;;;;;2.75;2.75;;;;;;;;5051638;28;10304;-81
2023/11/07 07:02:55;;;;;;;;;3.75;2.00;;;;;;;;5052046;28;10317;-77
2023/11/07 07:05:24;;;;;;;;;4.00;2.00;;;;;;;;5064751;28;10291;-84
2023/11/07 07:07:51;;;;;;;;;2.75;1.00;;;;;;;;5076104;28;10286;-77
2023/11/07 07:10:22;;;;;;;;;3.50;2.00;;;;;;;;5076526;28;10320;-82
2023/11/07 07:12:49;;;;;;;;;4.00;4.00;;;;;;;;5056434;28;10387;-84
2023/11/07 07:15:19;;;;;;;;;1.75;1.75;;;;;;;;5050794;28;10370;-89
2023/11/07 07:17:49;;;;;;;;;3.25;3.00;;;;;;;;5049049;28;10292;-90
2023/11/07 07:20:19;;;;;;;;;3.00;2.00;;;;;;;;5047848;28;10573;-86
2023/11/07 07:22:47;;;;;;;;;3.00;3.00;;;;;;;;5052361;28;10323;-89
2023/11/07 07:25:20;;;;;;;;;1.75;1.75;;;;;;;;5043235;28;10365;-87
2023/11/07 07:27:47;;;;;;;;;2.00;2.00;;;;;;;;5046109;28;10461;-77
2023/11/07 07:30:20;;;;;;;;;1.00;1.00;;;;;;;;5038601;28;10461;-85
2023/11/07 07:32:49;;;;;;;;;3.50;2.00;;;;;;;;5051403;28;10307;-76
2023/11/07 07:35:16;;;;;;;;;4.00;2.00;;;;;;;;5050056;28;10406;-82
2023/11/07 07:37:45;;;;;;;;;2.75;1.50;;;;;;;;5051979;28;10290;-81
2023/11/07 07:40:15;;;;;;;;;2.50;2.00;;;;;;;;5061025;28;10279;-72
2023/11/07 07:42:44;;;;;;;;;4.00;2.50;;;;;;;;5067311;28;10201;-77
2023/11/07 07:45:14;;;;;;;;;2.25;1.50;;;;;;;;5052883;28;10320;-78
2023/11/07 07:47:46;;;;;;;;;1.75;1.75;;;;;;;;5052000;28;10363;-81
2023/11/07 07:50:18;;;;;;;;;2.00;2.00;;;;;;;;5044898;28;10320;-79
2023/11/07 07:52:48;;;;;;;;;2.00;2.00;;;;;;;;5047505;28;10310;-77
2023/11/07 07:55:19;;;;;;;;;1.25;1.25;;;;;;;;5053600;28;10208;-80
2023/11/07 07:57:46;;;;;;;;;1.00;1.00;;;;;;;;5054260;28;10780;-80
2023/11/07 08:00:15;;;;;;;;;1.00;1.00;;;;;;;;5054962;28;10301;-78
2023/11/07 08:02:45;;;;;;;;;3.75;1.25;;;;;;;;5052614;28;10112;-81
2023/11/07 08:05:17;;;;;;;;;2.75;2.25;;;;;;;;5054506;28;10223;-79
2023/11/07 08:07:45;;;;;;;;;3.00;2.00;;;;;;;;5054869;28;10123;-75
2023/11/07 08:10:18;;;;;;;;;2.00;2.00;;;;;;;;5052844;28;10161;-75
2023/11/07 08:12:45;;;;;;;;;2.50;2.00;;;;;;;;5049893;28;10246;-78
2023/11/07 08:15:13;;;;;;;;;2.00;2.00;;;;;;;;5050515;28;10085;-73
2023/11/07 08:17:43;;;;;;;;;3.00;2.00;;;;;;;;5048294;28;10154;-75
2023/11/07 08:20:15;;;;;;;;;3.25;2.00;;;;;;;;5047267;28;10135;-74
2023/11/07 08:22:44;;;;;;;;;1.50;1.50;;;;;;;;5051277;28;10153;-75
2023/11/07 08:25:12;;;;;;;;;2.75;1.00;;;;;;;;5049129;28;10374;-77
2023/11/07 08:27:39;;;;;;;;;1.50;1.50;;;;;;;;5049469;28;10235;-75
2023/11/07 08:30:10;;;;;;;;;1.00;1.00;;;;;;;;5047516;28;10191;-74
2023/11/07 08:32:37;;;;;;;;;2.25;2.25;;;;;;;;5049198;28;10212;-76
2023/11/07 08:35:06;;;;;;;;;2.25;2.25;;;;;;;;5047051;28;10225;-74
2023/11/07 08:37:34;;;;;;;;;1.25;1.00;;;;;;;;5048866;28;10169;-75
2023/11/07 08:40:06;;;;;;;;;2.00;2.00;;;;;;;;5048789;28;10188;-77
2023/11/07 08:42:33;;;;;;;;;1.50;1.00;;;;;;;;5049091;28;10063;-77
2023/11/07 08:45:01;;;;;;;;;1.25;1.25;;;;;;;;5048000;28;9918;-75
2023/11/07 08:47:28;;;;;;;;;3.50;2.00;;;;;;;;5038669;28;10053;-73
2023/11/07 08:49:57;;;;;;;;;3.00;1.50;;;;;;;;5047335;28;10173;-74
2023/11/07 08:52:25;;;;;;;;;0.00;0.00;;;;;;;;5038490;28;10081;-77
2023/11/07 08:55:00;;;;;;;;;0.25;0.25;;;;;;;;5047126;28;9990;-76
2023/11/07 08:57:31;;;;;;;;;1.00;1.00;;;;;;;;5049130;28;9986;-73
2023/11/07 09:00:02;;;;;;;;;3.25;2.00;;;;;;;;5042398;28;9878;-74
2023/11/07 09:02:29;;;;;;;;;2.00;2.00;;;;;;;;5043435;28;9748;-73
2023/11/07 09:04:59;;;;;;;;;1.00;1.00;;;;;;;;5048362;28;9982;-76
2023/11/07 09:07:27;;;;;;;;;2.00;1.25;;;;;;;;5048410;28;9757;-74
2023/11/07 09:09:54;;;;;;;;;0.75;0.75;;;;;;;;5048174;28;9695;-75
2023/11/07 09:12:22;;;;;;;;;1.00;1.00;;;;;;;;5047995;28;9609;-75
2023/11/07 09:14:50;;;;;;;;;0.50;0.50;;;;;;;;5047995;28;9549;-74
2023/11/07 09:17:18;;;;;;;;;2.00;2.00;;;;;;;;5047492;28;9617;-75
2023/11/07 09:19:47;;;;;;;;;0.75;0.75;;;;;;;;5048750;28;9500;-76
2023/11/07 09:22:14;;;;;;;;;2.50;1.00;;;;;;;;5046589;28;9442;-75
2023/11/07 09:24:41;;;;;;;;;0.67;0.67;;;;;;;;5048026;28;9413;-74
2023/11/07 09:27:09;;;;;;;;;4.33;1.33;;;;;;;;5047527;28;9345;-78
2023/11/07 09:29:37;;;;;;;;;3.25;2.00;;;;;;;;5048405;28;10267;-77
2023/11/07 09:32:07;;;;;;;;;2.33;1.00;;;;;;;;5047815;28;9404;-81
2023/11/07 09:34:34;;;;;;;;;2.00;2.00;;;;;;;;5048629;28;9320;-75
2023/11/07 09:37:03;;;;;;;;;1.00;1.00;;;;;;;;5047939;28;9225;-77
2023/11/07 09:39:32;;;;;;;;;1.00;1.00;;;;;;;;5049064;28;9323;-79
2023/11/07 09:41:59;;;;;;;;;1.33;1.33;;;;;;;;5044514;28;9255;-75
2023/11/07 09:44:27;;;;;;;;;2.67;1.00;;;;;;;;5044898;28;9354;-79
2023/11/07 09:46:57;;;;;;;;;1.00;1.00;;;;;;;;5052902;28;9433;-77
2023/11/07 09:49:26;;;;;;;;;1.33;1.33;;;;;;;;5056075;28;9283;-82
2023/11/07 09:51:56;;;;;;;;;11.00;5.33;;;;;;;;5054119;28;9214;-77
2023/11/07 09:54:25;;;;;;;;;4.00;2.33;;;;;;;;5052929;28;9347;-75
2023/11/07 09:56:54;;;;;;;;;1.67;1.00;;;;;;;;5051773;28;9333;-81
2023/11/07 09:59:31;;;;;;;;;1.33;1.33;;;;;;;;5055288;28;9068;-82
2023/11/07 10:01:58;;;;;;;;;1.00;1.00;;;;;;;;5072222;28;9113;-76
2023/11/07 10:04:28;;;;;;;;;1.67;1.67;;;;;;;;5072421;28;9262;-75
2023/11/07 10:06:56;;;;;;;;;3.00;1.67;;;;;;;;5055733;28;9235;-75
2023/11/07 10:09:23;;;;;;;;;2.33;2.00;;;;;;;;5050540;28;9215;-75
2023/11/07 10:11:53;;;;;;;;;1.00;1.00;;;;;;;;5049730;28;9325;-75
2023/11/07 10:14:20;;;;;;;;;3.67;1.67;;;;;;;;5037502;28;9423;-76
2023/11/07 10:16:51;;;;;;;;;1.00;1.00;;;;;;;;5047688;28;9231;-77
2023/11/07 10:19:22;;;;;;;;;3.00;1.33;;;;;;;;5049010;28;9058;-79
2023/11/07 10:21:51;;;;;;;;;2.00;2.00;;;;;;;;5048061;28;9087;-78
2023/11/07 10:24:19;;;;;;;;;1.00;1.00;;;;;;;;5048679;28;9299;-75
2023/11/07 10:26:53;;;;;;;;;2.00;2.00;;;;;;;;5048812;28;9981;-77
2023/11/07 10:29:26;;;;;;;;;2.33;2.00;;;;;;;;5038552;28;9039;-75
2023/11/07 10:32:05;;;;;;;;;3.00;3.00;;;;;;;;5045871;28;9028;-76
2023/11/07 10:34:33;;;;;;;;;4.33;2.00;;;;;;;;5048101;28;9178;-79
2023/11/07 10:37:05;;;;;;;;;1.00;1.00;;;;;;;;5047654;28;8976;-76
2023/11/07 10:39:35;;;;;;;;;1.00;1.00;;;;;;;;5048929;28;8852;-77
2023/11/07 10:42:17;;;;;;;;;1.00;1.00;;;;;;;;5046770;28;8936;-77
2023/11/07 10:44:45;;;;;;;;;1.00;1.00;;;;;;;;5059834;28;8848;-75
2023/11/07 10:47:12;;;;;;;;;3.00;1.00;;;;;;;;5061247;28;8841;-79
2023/11/07 10:49:43;;;;;;;;;2.00;2.00;;;;;;;;5048495;28;8864;-77
2023/11/07 10:52:13;;;;;;;;;1.00;1.00;;;;;;;;5047792;28;8990;-76
2023/11/07 10:54:40;;;;;;;;;1.25;1.25;;;;;;;;5045008;28;8978;-76
2023/11/07 10:57:12;;;;;;;;;1.50;1.00;;;;;;;;5047413;28;8844;-78
2023/11/07 10:59:41;;;;;;;;;2.00;2.00;;;;;;;;5035794;28;8856;-77
2023/11/07 11:02:09;;;;;;;;;1.75;0.75;;;;;;;;5047279;28;8899;-76
2023/11/07 11:04:39;;;;;;;;;1.75;1.75;;;;;;;;5046598;28;8848;-75
2023/11/07 11:07:08;;;;;;;;;3.00;1.75;;;;;;;;5047598;28;8856;-79
2023/11/07 11:09:46;;;;;;;;;1.75;1.75;;;;;;;;5048209;28;8981;-75
2023/11/07 11:12:24;;;;;;;;;3.00;1.00;;;;;;;;5051177;28;8918;-73
2023/11/07 11:14:54;;;;;;;;;1.00;1.00;;;;;;;;5031472;28;8880;-76
2023/11/07 11:17:30;;;;;;;;;2.75;1.50;;;;;;;;5049654;28;8872;-75
2023/11/07 11:20:13;;;;;;;;;1.75;1.75;;;;;;;;5055828;28;8848;-76
2023/11/07 11:22:48;;;;;;;;;1.25;1.25;;;;;;;;5054018;28;9689;-74
2023/11/07 11:25:32;;;;;;;;;1.25;1.00;;;;;;;;5056687;28;8933;-79
2023/11/07 11:28:10;;;;;;;;;2.00;2.00;;;;;;;;5058816;28;8983;-75
2023/11/07 11:30:40;;;;;;;;;1.00;1.00;;;;;;;;5059820;28;8784;-80
2023/11/07 11:33:11;;;;;;;;;5.00;2.00;;;;;;;;5053296;28;8859;-79
2023/11/07 11:35:40;;;;;;;;;1.75;1.75;;;;;;;;5044235;28;8870;-77
2023/11/07 11:38:13;;;;;;;;;1.50;1.50;;;;;;;;5052576;28;8852;-81
2023/11/07 11:40:53;;;;;;;;;1.00;1.00;;;;;;;;5049934;28;8930;-78
2023/11/07 11:43:21;;;;;;;;;1.00;1.00;;;;;;;;5052975;28;9582;-77
2023/11/07 11:45:49;;;;;;;;;1.50;1.50;;;;;;;;5053296;28;8886;-79
2023/11/07 11:48:18;;;;;;;;;3.75;2.00;;;;;;;;5050982;28;8832;-79
2023/11/07 11:50:48;;;;;;;;;1.00;1.00;;;;;;;;5050652;28;8859;-75
2023/11/07 11:53:34;;;;;;;;;1.75;1.75;;;;;;;;5054870;28;8966;-80
2023/11/07 11:56:11;;;;;;;;;2.75;1.00;;;;;;;;5072572;28;8863;-76
2023/11/07 11:58:39;;;;;;;;;2.50;1.25;;;;;;;;5054972;28;8941;-78
2023/11/07 12:01:06;;;;;;;;;0.50;0.50;;;;;;;;5049103;28;8808;-76
2023/11/07 12:03:42;;;;;;;;;3.75;2.00;;;;;;;;5050067;28;8852;-78
2023/11/07 12:06:10;;;;;;;;;2.00;1.00;;;;;;;;5049858;28;8873;-81
2023/11/07 12:08:41;;;;;;;;;1.00;1.00;;;;;;;;5050392;28;8852;-77
2023/11/07 12:11:10;;;;;;;;;1.00;1.00;;;;;;;;5051057;28;8852;-80
2023/11/07 12:13:38;;;;;;;;;1.25;1.25;;;;;;;;5038322;28;8879;-76
2023/11/07 12:16:16;;;;;;;;;2.00;1.00;;;;;;;;5049574;28;8859;-75
2023/11/07 12:18:46;;;;;;;;;1.25;1.00;;;;;;;;5050016;28;8864;-79
2023/11/07 12:21:24;;;;;;;;;3.00;1.00;;;;;;;;5048024;28;8856;-79
2023/11/07 12:23:53;;;;;;;;;1.00;1.00;;;;;;;;5054326;28;8878;-79
2023/11/07 12:26:21;;;;;;;;;1.00;1.00;;;;;;;;5051266;28;8882;-83
2023/11/07 12:28:49;;;;;;;;;0.75;0.75;;;;;;;;5037840;28;8848;-79
2023/11/07 12:31:16;;;;;;;;;3.00;2.00;;;;;;;;5049405;28;8764;-83
2023/11/07 12:33:44;;;;;;;;;1.00;1.00;;;;;;;;5049476;28;8856;-79
2023/11/07 12:36:14;;;;;;;;;1.00;1.00;;;;;;;;5050577;28;8855;-79
2023/11/07 12:38:42;;;;;;;;;0.50;0.50;;;;;;;;5051586;28;8859;-79
2023/11/07 12:41:10;;;;;;;;;2.00;1.00;;;;;;;;5068624;28;8833;-81
2023/11/07 12:43:43;;;;;;;;;0.00;0.00;;;;;;;;5073892;28;8980;-81
2023/11/07 12:46:12;;;;;;;;;3.50;1.75;;;;;;;;5056548;28;8837;-78
2023/11/07 12:48:40;;;;;;;;;1.75;1.00;;;;;;;;5044305;28;8890;-79
2023/11/07 12:51:08;;;;;;;;;1.75;1.75;;;;;;;;5050282;28;8852;-80
2023/11/07 12:53:46;;;;;;;;;2.50;0.00;;;;;;;;5050000;28;8917;-83
2023/11/07 12:56:16;;;;;;;;;1.50;1.50;;;;;;;;5049727;28;8892;-84
2023/11/07 12:58:46;;;;;;;;;3.75;2.50;;;;;;;;5040825;28;8856;-81
2023/11/07 13:01:13;;;;;;;;;1.00;1.00;;;;;;;;5047525;28;8793;-86
2023/11/07 13:03:40;;;;;;;;;0.75;0.75;;;;;;;;5049825;28;8990;-79
2023/11/07 13:06:10;;;;;;;;;1.00;0.50;;;;;;;;5048174;28;8836;-84
2023/11/07 13:08:40;;;;;;;;;1.75;1.00;;;;;;;;5039203;28;8846;-83
2023/11/07 13:11:10;;;;;;;;;1.50;1.50;;;;;;;;5045408;28;8869;-86
2023/11/07 13:13:37;;;;;;;;;3.75;2.00;;;;;;;;5044076;28;9618;-81
2023/11/07 13:16:07;;;;;;;;;1.50;0.75;;;;;;;;5049915;28;8941;-80
2023/11/07 13:18:36;;;;;;;;;1.00;1.00;;;;;;;;5050011;28;8868;-83
2023/11/07 13:21:08;;;;;;;;;0.75;0.75;;;;;;;;5048734;28;8844;-82
2023/11/07 13:23:36;;;;;;;;;2.00;0.00;;;;;;;;5052675;28;8864;-78
2023/11/07 13:26:03;;;;;;;;;1.50;1.00;;;;;;;;5052374;28;8824;-80
2023/11/07 13:28:31;;;;;;;;;1.00;1.00;;;;;;;;5050100;28;8947;-75
2023/11/07 13:31:00;;;;;;;;;2.00;0.25;;;;;;;;5052037;28;8907;-79
2023/11/07 13:33:29;;;;;;;;;3.00;1.00;;;;;;;;5050517;28;8828;-81
2023/11/07 13:35:56;;;;;;;;;1.00;1.00;;;;;;;;5049301;28;9638;-83
2023/11/07 13:38:24;;;;;;;;;1.25;1.25;;;;;;;;5048677;28;9696;-76
2023/11/07 13:40:52;;;;;;;;;1.00;1.00;;;;;;;;5048746;28;8852;-79
2023/11/07 13:43:19;;;;;;;;;0.50;0.25;;;;;;;;5039548;28;8968;-80
2023/11/07 13:45:46;;;;;;;;;5.00;1.50;;;;;;;;5049957;28;8925;-76
2023/11/07 13:48:14;;;;;;;;;0.25;0.25;;;;;;;;5048277;28;8955;-83
2023/11/07 13:50:50;;;;;;;;;1.75;1.25;;;;;;;;5048961;28;8956;-81
2023/11/07 13:53:18;;;;;;;;;2.00;2.00;;;;;;;;5048161;28;8875;-88
2023/11/07 13:55:45;;;;;;;;;2.75;2.00;;;;;;;;5047977;28;8852;-82
2023/11/07 13:58:12;;;;;;;;;1.00;1.00;;;;;;;;5047201;28;8848;-81
2023/11/07 14:00:39;;;;;;;;;3.00;2.00;;;;;;;;5048952;28;8843;-76
2023/11/07 14:03:07;;;;;;;;;0.75;0.00;;;;;;;;5049831;28;8890;-80
2023/11/07 14:05:34;;;;;;;;;0.00;0.00;;;;;;;;5050060;28;8848;-80
2023/11/07 14:08:03;;;;;;;;;0.50;0.50;;;;;;;;5049737;28;9668;-81
2023/11/07 14:10:31;;;;;;;;;0.75;0.75;;;;;;;;5048299;28;8934;-82
2023/11/07 14:13:00;;;;;;;;;3.25;1.00;;;;;;;;5036065;28;8869;-78
2023/11/07 14:15:32;;;;;;;;;2.00;0.25;;;;;;;;5047346;28;8851;-82
2023/11/07 14:18:02;;;;;;;;;1.00;1.00;;;;;;;;5050091;28;8848;-76
2023/11/07 14:20:31;;;;;;;;;1.50;1.50;;;;;;;;5048229;28;8853;-79
2023/11/07 14:23:02;;;;;;;;;1.00;0.00;;;;;;;;5048475;28;9753;-79
2023/11/07 14:25:32;;;;;;;;;0.50;0.50;;;;;;;;5035550;28;8864;-81
2023/11/07 14:28:05;;;;;;;;;0.00;0.00;;;;;;;;5047866;28;8856;-81
2023/11/07 14:30:34;;;;;;;;;1.25;1.00;;;;;;;;5047863;28;8792;-81
2023/11/07 14:33:02;;;;;;;;;2.75;1.00;;;;;;;;5048057;28;8872;-76
2023/11/07 14:35:29;;;;;;;;;1.00;1.00;;;;;;;;5048163;28;8817;-78
2023/11/07 14:37:57;;;;;;;;;0.25;0.25;;;;;;;;5047408;28;8853;-77
2023/11/07 14:40:25;;;;;;;;;1.00;1.00;;;;;;;;5048055;28;8844;-80
2023/11/07 14:42:54;;;;;;;;;2.00;1.00;;;;;;;;5046838;28;8860;-74
2023/11/07 14:45:23;;;;;;;;;1.00;1.00;;;;;;;;5047269;28;8848;-85
2023/11/07 14:47:52;;;;;;;;;0.00;0.00;;;;;;;;5047514;28;8840;-77
2023/11/07 14:50:20;;;;;;;;;1.25;0.75;;;;;;;;5048110;28;8966;-84
2023/11/07 14:52:50;;;;;;;;;0.25;0.25;;;;;;;;5048498;28;8882;-87
2023/11/07 14:55:19;;;;;;;;;2.00;2.00;;;;;;;;5053861;28;8967;-82
2023/11/07 14:57:48;;;;;;;;;0.50;0.50;;;;;;;;5051913;28;8872;-81
2023/11/07 15:00:26;;;;;;;;;1.00;1.00;;;;;;;;5052536;28;9650;-80
2023/11/07 15:02:56;;;;;;;;;1.75;1.75;;;;;;;;5054810;28;8883;-78
2023/11/07 15:05:25;;;;;;;;;0.25;0.25;;;;;;;;5054941;28;8840;-83
2023/11/07 15:07:53;;;;;;;;;1.25;0.75;;;;;;;;5056248;28;8883;-80
2023/11/07 15:10:20;;;;;;;;;1.00;1.00;;;;;;;;5056751;28;8821;-80
2023/11/07 15:12:48;;;;;;;;;0.00;0.00;;;;;;;;5052007;28;8868;-81